Time;durP1;ratioP1;P1;durP2;ratioP2;P2;SDS_P1;SDS_P2;PMS_P1;PMS_P2;Temp;Humidity;BMP_temperature;BMP_pressure;BME280_temperature;BME280_humidity;BME280_pressure;Samples;Min_cycle;Max_cycle;Signal;HPM_P1;HPM_P2
2022/11/07 00:02:13;;;;;;;7.10;3.63;;;-9.80;99.90;;;;;;5088559;28;20202;-70
2022/11/07 00:04:39;;;;;;;8.47;3.60;;;-8.00;99.90;;;;;;5091668;28;20213;-70
2022/11/07 00:07:06;;;;;;;8.00;3.97;;;-9.30;99.90;;;;;;5096715;28;20189;-67
2022/11/07 00:09:32;;;;;;;9.80;4.63;;;-9.10;99.90;;;;;;5092259;28;20202;-72
2022/11/07 00:11:58;;;;;;;16.70;3.80;;;-9.20;99.90;;;;;;5095537;28;20482;-76
2022/11/07 00:14:24;;;;;;;8.27;4.63;;;-10.60;99.90;;;;;;5090758;28;20187;-71
2022/11/07 00:16:50;;;;;;;6.10;3.57;;;-9.90;99.90;;;;;;5089870;28;20175;-73
2022/11/07 00:19:18;;;;;;;7.87;4.03;;;-9.70;99.90;;;;;;5090071;28;20293;-73
2022/11/07 00:21:45;;;;;;;7.80;4.80;;;-9.70;99.90;;;;;;5092581;28;20189;-72
2022/11/07 00:24:11;;;;;;;12.10;5.27;;;-10.50;99.90;;;;;;5096430;28;20197;-75
2022/11/07 00:26:37;;;;;;;8.60;3.93;;;-10.20;99.90;;;;;;5096204;28;20201;-74
2022/11/07 00:29:04;;;;;;;11.67;3.97;;;-9.40;99.90;;;;;;5096375;28;20213;-72
2022/11/07 00:31:30;;;;;;;6.53;3.43;;;-10.90;99.90;;;;;;5096149;28;20192;-69
2022/11/07 00:33:56;;;;;;;9.23;3.67;;;-11.40;99.90;;;;;;5096274;28;20190;-69
2022/11/07 00:36:25;;;;;;;9.53;3.83;;;-12.00;99.90;;;;;;5096052;28;20270;-70
2022/11/07 00:38:51;;;;;;;10.87;2.87;;;-12.10;99.90;;;;;;5089759;28;20210;-70
2022/11/07 00:41:17;;;;;;;6.43;3.90;;;-11.70;99.90;;;;;;5081995;28;20237;-71
2022/11/07 00:43:43;;;;;;;14.57;4.53;;;-11.00;99.90;;;;;;5086984;28;20210;-69
2022/11/07 00:46:12;;;;;;;9.23;3.80;;;-10.70;99.90;;;;;;5086885;28;20240;-69
2022/11/07 00:48:38;;;;;;;7.77;3.70;;;-11.00;99.90;;;;;;5093002;28;20647;-71
2022/11/07 00:51:14;;;;;;;8.43;3.30;;;-10.30;99.90;;;;;;5096360;28;20179;-71
2022/11/07 00:53:40;;;;;;;10.57;3.57;;;-10.20;99.90;;;;;;5086897;28;20174;-70
2022/11/07 00:56:08;;;;;;;7.47;3.67;;;-11.30;99.90;;;;;;5088089;28;20229;-69
2022/11/07 00:58:35;;;;;;;10.37;4.33;;;-10.60;99.90;;;;;;5087789;28;20210;-71
2022/11/07 01:01:15;;;;;;;13.40;4.20;;;-10.00;99.90;;;;;;5087626;28;20190;-72
2022/11/07 01:06:31;;;;;;;14.23;3.77;;;-11.50;99.90;;;;;;5088671;28;20596;-69
2022/11/07 01:08:57;;;;;;;7.77;3.20;;;-11.50;99.90;;;;;;5089191;28;20206;-71
2022/11/07 01:11:25;;;;;;;8.07;2.90;;;-12.70;99.90;;;;;;5091361;28;20182;-68
2022/11/07 01:13:55;;;;;;;17.67;4.37;;;-11.70;99.90;;;;;;5079326;28;20186;-68
2022/11/07 01:16:20;;;;;;;13.90;3.73;;;-10.70;99.90;;;;;;5088641;28;20253;-69
2022/11/07 01:18:46;;;;;;;11.63;3.63;;;-10.40;99.90;;;;;;5095860;28;20197;-69
2022/11/07 01:21:12;;;;;;;16.10;3.53;;;-11.10;99.90;;;;;;5094703;28;20194;-71
2022/11/07 01:23:38;;;;;;;9.53;3.23;;;-10.50;99.90;;;;;;5090245;28;20187;-69
2022/11/07 01:26:06;;;;;;;7.80;2.70;;;-12.80;99.90;;;;;;5095646;28;20182;-70
2022/11/07 01:28:32;;;;;;;9.77;3.83;;;-14.00;99.90;;;;;;5085040;28;20199;-71
2022/11/07 01:31:01;;;;;;;8.97;2.30;;;-14.70;99.90;;;;;;5094058;28;20527;-71
2022/11/07 01:33:27;;;;;;;7.50;2.77;;;-14.20;99.90;;;;;;5095584;28;20270;-70
2022/11/07 01:35:52;;;;;;;12.67;4.03;;;-15.40;99.90;;;;;;5095655;28;20253;-71
2022/11/07 01:38:18;;;;;;;8.77;3.17;;;-13.50;99.90;;;;;;5090593;28;20189;-71
2022/11/07 01:43:52;;;;;;;10.50;3.40;;;-12.30;99.90;;;;;;5084808;28;20643;-68
2022/11/07 01:46:19;;;;;;;5.90;3.07;;;-10.00;99.90;;;;;;5081935;28;20575;-69
2022/11/07 01:48:53;;;;;;;11.73;3.77;;;-8.90;99.90;;;;;;5089393;28;20671;-67
2022/11/07 01:51:21;;;;;;;12.77;3.77;;;-10.80;99.90;;;;;;5088952;28;20493;-71
2022/11/07 01:53:48;;;;;;;15.30;3.90;;;-10.90;99.90;;;;;;5095175;28;20171;-68
2022/11/07 01:56:16;;;;;;;11.27;2.93;;;-12.30;99.90;;;;;;5088384;28;20181;-70
2022/11/07 01:58:44;;;;;;;9.83;2.77;;;-13.30;99.90;;;;;;5094983;28;20194;-71
2022/11/07 02:01:10;;;;;;;15.57;3.40;;;-13.20;99.90;;;;;;5091367;28;20474;-70
2022/11/07 02:03:36;;;;;;;12.73;3.13;;;-12.40;99.90;;;;;;5089918;28;20218;-70
2022/11/07 02:06:06;;;;;;;9.60;2.93;;;-12.90;99.90;;;;;;5091779;28;20266;-68
2022/11/07 02:08:34;;;;;;;15.97;4.37;;;-14.10;99.90;;;;;;5084721;28;20506;-68
2022/11/07 02:11:01;;;;;;;9.47;3.13;;;-12.10;99.90;;;;;;5095288;28;20207;-68
2022/11/07 02:13:29;;;;;;;7.87;2.67;;;-10.80;99.90;;;;;;5096534;28;20183;-69
2022/11/07 02:15:57;;;;;;;16.20;3.47;;;-12.20;99.90;;;;;;5097878;28;20700;-70
2022/11/07 02:18:24;;;;;;;7.80;2.90;;;-12.30;99.90;;;;;;5099106;28;20395;-69
2022/11/07 02:20:51;;;;;;;14.93;3.13;;;-11.30;99.90;;;;;;5098330;28;20666;-69
2022/11/07 02:23:26;;;;;;;23.20;4.70;;;-10.50;99.90;;;;;;5099062;28;20198;-69
2022/11/07 02:25:53;;;;;;;14.00;3.07;;;-12.10;99.90;;;;;;5090521;28;20175;-68
2022/11/07 02:28:22;;;;;;;9.87;3.37;;;-11.20;99.90;;;;;;5084796;28;20324;-71
2022/11/07 02:30:48;;;;;;;18.47;4.80;;;-11.70;99.90;;;;;;5091056;28;20179;-69
2022/11/07 02:33:22;;;;;;;12.87;4.03;;;-13.70;99.90;;;;;;5090695;28;20582;-71
2022/11/07 02:35:50;;;;;;;13.17;4.10;;;-12.30;99.90;;;;;;5087699;28;20174;-70
2022/11/07 02:38:21;;;;;;;13.13;3.03;;;-13.30;99.90;;;;;;5098664;28;20175;-73
2022/11/07 02:41:09;;;;;;;14.37;4.40;;;-12.40;99.90;;;;;;5090987;28;20190;-69
2022/11/07 02:43:38;;;;;;;8.33;3.67;;;-11.80;99.90;;;;;;5093457;28;20179;-69
2022/11/07 02:46:07;;;;;;;14.60;4.53;;;-9.80;99.90;;;;;;5089986;28;20187;-72
2022/11/07 02:48:42;;;;;;;12.30;3.87;;;-12.00;99.90;;;;;;5093088;28;20187;-70
2022/11/07 02:51:08;;;;;;;11.53;4.07;;;-11.10;99.90;;;;;;5087243;28;20240;-72
2022/11/07 02:53:33;;;;;;;14.17;4.47;;;-13.30;99.90;;;;;;5098403;28;20178;-68
2022/11/07 02:55:59;;;;;;;10.37;3.87;;;-12.40;99.90;;;;;;5097829;28;20629;-75
2022/11/07 02:58:25;;;;;;;16.03;3.63;;;-13.10;99.90;;;;;;5090218;28;20270;-68
2022/11/07 03:00:50;;;;;;;12.17;3.67;;;-13.00;99.90;;;;;;5094426;28;20202;-72
2022/11/07 03:03:16;;;;;;;14.40;3.33;;;-11.80;99.90;;;;;;5081027;28;20306;-73
2022/11/07 03:05:42;;;;;;;13.47;4.13;;;-10.30;99.90;;;;;;5092357;28;20226;-71
2022/11/07 03:08:08;;;;;;;17.60;4.60;;;-10.10;99.90;;;;;;5097776;28;20198;-69
2022/11/07 03:10:33;;;;;;;6.13;2.27;;;-9.90;99.90;;;;;;5097880;28;20179;-71
2022/11/07 03:13:00;;;;;;;11.80;2.80;;;-9.40;99.90;;;;;;5089325;28;20598;-71
2022/11/07 03:15:26;;;;;;;14.77;3.47;;;-9.90;99.90;;;;;;5097980;28;20174;-73
2022/11/07 03:17:52;;;;;;;11.23;4.20;;;-10.00;99.90;;;;;;5087592;28;20241;-70
2022/11/07 03:20:18;;;;;;;9.17;3.37;;;-10.10;99.90;;;;;;5093330;28;20258;-75
2022/11/07 03:22:45;;;;;;;21.37;3.23;;;-9.30;99.90;;;;;;5098254;28;20261;-74
2022/11/07 03:25:11;;;;;;;9.67;4.10;;;-9.40;99.90;;;;;;5092445;28;20591;-71
2022/11/07 03:27:45;;;;;;;8.87;3.30;;;-12.40;99.90;;;;;;5090389;28;20210;-69
2022/11/07 03:30:11;;;;;;;13.83;3.60;;;-14.30;99.90;;;;;;5093295;28;20257;-68
2022/11/07 03:32:37;;;;;;;12.10;2.60;;;-13.10;99.90;;;;;;5093326;28;20171;-70
2022/11/07 03:35:02;;;;;;;8.57;2.70;;;-12.50;99.90;;;;;;5089960;28;20197;-72
2022/11/07 03:37:28;;;;;;;16.63;3.33;;;-11.50;99.90;;;;;;5082519;28;20206;-72
2022/11/07 03:39:54;;;;;;;8.53;2.53;;;-11.30;99.90;;;;;;5094363;28;20257;-72
2022/11/07 03:42:20;;;;;;;8.00;3.00;;;-10.70;99.90;;;;;;5094894;28;20179;-75
2022/11/07 03:44:45;;;;;;;12.13;3.43;;;-10.60;99.90;;;;;;5097266;28;20171;-72
2022/11/07 03:47:11;;;;;;;10.20;3.77;;;-10.00;99.90;;;;;;5090233;28;20213;-72
2022/11/07 03:49:37;;;;;;;15.03;4.60;;;-9.80;99.90;;;;;;5092213;28;20206;-71
2022/11/07 03:52:03;;;;;;;12.77;4.70;;;-10.00;99.90;;;;;;5093843;28;20182;-73
2022/11/07 03:54:28;;;;;;;6.57;2.47;;;-9.80;99.90;;;;;;5093197;28;20235;-75
2022/11/07 03:56:54;;;;;;;19.53;4.43;;;-9.60;99.90;;;;;;5093132;28;20327;-69
2022/11/07 03:59:20;;;;;;;10.57;3.63;;;-10.90;99.90;;;;;;5094776;28;20311;-75
2022/11/07 04:01:46;;;;;;;14.27;4.07;;;-12.40;99.90;;;;;;5096858;28;20549;-70
2022/11/07 04:04:12;;;;;;;8.93;3.00;;;-11.70;99.90;;;;;;5096479;28;20210;-69
2022/11/07 04:06:37;;;;;;;14.53;3.80;;;-10.80;99.90;;;;;;5090067;28;20259;-70
2022/11/07 04:09:04;;;;;;;7.50;2.90;;;-11.00;99.90;;;;;;5097020;28;20205;-74
2022/11/07 04:19:42;;;;;;;9.90;3.87;;;-10.30;99.90;;;;;;5083749;28;20194;-75
2022/11/07 04:22:08;;;;;;;7.97;3.07;;;-11.40;99.90;;;;;;5092016;28;20594;-74
2022/11/07 04:24:33;;;;;;;10.53;2.97;;;-11.50;99.90;;;;;;5086309;28;20182;-73
2022/11/07 04:29:44;;;;;;;19.70;3.93;;;-10.40;99.90;;;;;;5082559;28;20656;-74
2022/11/07 04:32:10;;;;;;;10.93;2.70;;;-9.00;99.90;;;;;;5087955;28;20205;-75
2022/11/07 04:34:35;;;;;;;10.47;3.93;;;-9.30;99.90;;;;;;5087273;28;20590;-75
2022/11/07 04:37:01;;;;;;;15.80;3.70;;;-9.30;99.90;;;;;;5089759;28;20180;-71
2022/11/07 04:39:27;;;;;;;11.10;4.43;;;-8.40;99.90;;;;;;5087844;28;20553;-74
2022/11/07 04:41:55;;;;;;;11.43;3.70;;;-8.60;99.90;;;;;;5088109;28;20321;-72
2022/11/07 04:44:21;;;;;;;16.63;4.27;;;-8.90;99.90;;;;;;5100575;28;20185;-75
2022/11/07 04:46:47;;;;;;;15.07;3.97;;;-11.30;99.90;;;;;;5094753;28;20234;-73
2022/11/07 04:49:14;;;;;;;16.40;4.13;;;-8.60;99.90;;;;;;5092888;28;20198;-74
2022/11/07 04:51:43;;;;;;;20.10;4.40;;;-7.80;99.90;;;;;;5077839;28;20167;-73
2022/11/07 04:54:12;;;;;;;15.10;3.10;;;-8.10;99.90;;;;;;5088297;28;20237;-71
2022/11/07 04:56:38;;;;;;;13.70;4.13;;;-7.70;99.90;;;;;;5096500;28;20243;-74
2022/11/07 04:59:04;;;;;;;20.93;3.93;;;-9.40;99.90;;;;;;5095946;28;20511;-70
2022/11/07 05:01:30;;;;;;;16.07;4.03;;;-10.70;99.90;;;;;;5090937;28;20224;-70
2022/11/07 05:03:56;;;;;;;17.17;4.00;;;-10.00;99.90;;;;;;5094451;28;20606;-70
2022/11/07 05:06:22;;;;;;;13.70;4.17;;;-11.30;99.90;;;;;;5084456;28;20186;-75
2022/11/07 05:08:48;;;;;;;17.87;3.83;;;-9.20;99.90;;;;;;5094650;28;20221;-73
2022/11/07 05:11:14;;;;;;;11.83;3.23;;;-7.70;99.90;;;;;;5095826;28;20205;-71
2022/11/07 05:13:40;;;;;;;15.47;3.33;;;-8.60;99.90;;;;;;5095285;28;20224;-73
2022/11/07 05:16:10;;;;;;;12.93;3.77;;;-8.90;99.90;;;;;;5089105;28;20375;-70
2022/11/07 05:18:36;;;;;;;13.70;3.97;;;-8.50;99.90;;;;;;5082759;28;20179;-72
2022/11/07 05:21:02;;;;;;;13.93;4.00;;;-9.30;99.90;;;;;;5091122;28;20542;-70
2022/11/07 05:23:27;;;;;;;15.87;3.77;;;-10.50;99.90;;;;;;5085036;28;20205;-71
2022/11/07 05:25:53;;;;;;;24.13;4.37;;;-8.90;99.90;;;;;;5084151;28;20192;-74
2022/11/07 05:28:26;;;;;;;13.47;4.57;;;-8.50;99.90;;;;;;5094058;28;20297;-72
2022/11/07 05:30:51;;;;;;;12.10;3.20;;;-10.80;99.90;;;;;;5090936;28;20174;-74
2022/11/07 05:33:18;;;;;;;20.40;4.83;;;-10.40;99.90;;;;;;5095466;28;20188;-73
2022/11/07 05:35:44;;;;;;;20.30;5.00;;;-9.10;99.90;;;;;;5093470;28;20183;-73
2022/11/07 05:38:11;;;;;;;20.40;4.97;;;-9.20;99.90;;;;;;5090959;28;20196;-69
2022/11/07 05:40:38;;;;;;;12.30;3.57;;;-8.10;99.90;;;;;;5091200;28;20344;-75
2022/11/07 05:43:10;;;;;;;9.00;3.57;;;-7.90;99.90;;;;;;5090580;28;20538;-73
2022/11/07 05:45:37;;;;;;;11.73;3.30;;;-9.30;99.90;;;;;;5088360;28;20213;-74
2022/11/07 05:48:06;;;;;;;19.73;4.80;;;-9.20;99.90;;;;;;5086023;28;20205;-72
2022/11/07 05:50:32;;;;;;;10.43;4.00;;;-9.90;99.90;;;;;;5099355;28;20174;-75
2022/11/07 05:52:58;;;;;;;11.63;3.00;;;-11.00;99.90;;;;;;5098917;28;20182;-72
2022/11/07 05:55:24;;;;;;;12.40;3.70;;;-9.10;99.90;;;;;;5099282;28;20175;-72
2022/11/07 05:57:51;;;;;;;17.53;6.63;;;-10.20;99.90;;;;;;5099404;28;20228;-72
2022/11/07 06:00:17;;;;;;;14.57;4.23;;;-9.50;99.90;;;;;;5099122;28;20608;-70
2022/11/07 06:02:44;;;;;;;11.23;3.40;;;-9.20;99.90;;;;;;5099305;28;20221;-73
2022/11/07 06:05:10;;;;;;;9.70;3.70;;;-9.30;99.90;;;;;;5090590;28;20187;-76
2022/11/07 06:07:38;;;;;;;11.73;3.10;;;-8.90;99.90;;;;;;5088807;28;20258;-70
2022/11/07 06:10:05;;;;;;;11.30;3.73;;;-8.30;99.90;;;;;;5087597;28;20483;-72
2022/11/07 06:12:31;;;;;;;17.20;4.73;;;-9.70;99.90;;;;;;5092179;28;20186;-73
2022/11/07 06:14:58;;;;;;;7.70;3.70;;;-12.00;99.90;;;;;;5096952;28;20175;-74
2022/11/07 06:17:23;;;;;;;10.17;3.50;;;-10.10;99.90;;;;;;5099009;28;20178;-73
2022/11/07 06:19:49;;;;;;;16.40;4.07;;;-12.40;99.90;;;;;;5096963;28;20495;-72
2022/11/07 06:22:15;;;;;;;16.43;4.73;;;-12.70;99.90;;;;;;5088760;28;20178;-70
2022/11/07 06:24:40;;;;;;;19.70;4.60;;;-10.30;99.90;;;;;;5090732;28;20179;-71
2022/11/07 06:27:06;;;;;;;13.27;3.37;;;-8.90;99.90;;;;;;5092615;28;20191;-71
2022/11/07 06:29:32;;;;;;;9.77;3.87;;;-8.60;99.90;;;;;;5090841;28;20195;-74
2022/11/07 06:31:58;;;;;;;11.63;3.97;;;-11.60;99.90;;;;;;5094196;28;20182;-73
2022/11/07 06:34:24;;;;;;;11.50;3.60;;;-14.10;99.90;;;;;;5098695;28;20620;-69
2022/11/07 06:36:53;;;;;;;15.00;4.23;;;-13.10;99.90;;;;;;5093137;28;20266;-73
2022/11/07 06:39:19;;;;;;;16.40;3.10;;;-13.40;99.90;;;;;;5090912;28;20181;-72
2022/11/07 06:41:45;;;;;;;15.43;3.80;;;-12.40;99.90;;;;;;5080049;28;20174;-71
2022/11/07 06:44:10;;;;;;;16.47;3.77;;;-13.10;99.90;;;;;;5090144;28;20186;-72
2022/11/07 06:46:36;;;;;;;14.70;3.73;;;-10.70;99.90;;;;;;5098658;28;20188;-71
2022/11/07 06:49:02;;;;;;;14.00;4.50;;;-10.70;99.90;;;;;;5097258;28;20234;-67
2022/11/07 06:51:27;;;;;;;11.07;3.93;;;-9.50;99.90;;;;;;5093896;28;20183;-68
2022/11/07 06:53:53;;;;;;;10.43;3.70;;;-8.00;99.90;;;;;;5096439;28;20184;-67
2022/11/07 06:56:19;;;;;;;19.13;4.47;;;-7.70;99.90;;;;;;5093100;28;20224;-71
2022/11/07 06:58:45;;;;;;;13.47;4.53;;;-8.20;99.90;;;;;;5088848;28;20184;-71
2022/11/07 07:01:14;;;;;;;10.60;3.53;;;-9.90;99.90;;;;;;5096888;28;20239;-71
2022/11/07 07:03:41;;;;;;;14.80;4.13;;;-8.70;99.90;;;;;;5097873;28;20218;-68
2022/11/07 07:06:13;;;;;;;15.20;4.60;;;-9.00;99.90;;;;;;5093826;28;20193;-71
2022/11/07 07:08:39;;;;;;;9.90;3.73;;;-13.50;99.90;;;;;;5088190;28;20252;-69
2022/11/07 07:11:08;;;;;;;10.93;4.37;;;-12.50;99.90;;;;;;5090775;28;20187;-69
2022/11/07 07:13:34;;;;;;;14.33;4.20;;;-12.50;99.90;;;;;;5088632;28;20254;-69
2022/11/07 07:16:00;;;;;;;14.93;4.47;;;-13.60;99.90;;;;;;5079841;28;20179;-68
2022/11/07 07:18:26;;;;;;;19.47;5.60;;;-13.10;99.90;;;;;;5090300;28;20190;-73
2022/11/07 07:21:00;;;;;;;16.67;3.90;;;-9.30;99.90;;;;;;5092835;28;20486;-75
2022/11/07 07:23:26;;;;;;;8.33;3.33;;;-9.40;99.90;;;;;;5097235;28;20257;-69
2022/11/07 07:25:51;;;;;;;15.07;3.57;;;-9.00;99.90;;;;;;5093459;28;20249;-74
2022/11/07 07:28:17;;;;;;;11.67;3.97;;;-9.20;99.90;;;;;;5096691;28;20274;-74
2022/11/07 07:30:43;;;;;;;23.67;6.17;;;-12.30;99.90;;;;;;5093191;28;20187;-73
2022/11/07 07:33:08;;;;;;;14.43;4.77;;;-12.10;99.90;;;;;;5093557;28;20284;-72
2022/11/07 07:35:34;;;;;;;15.00;5.10;;;-11.20;99.90;;;;;;5089176;28;20178;-67
2022/11/07 07:38:00;;;;;;;22.87;4.53;;;-13.10;99.90;;;;;;5091472;28;20260;-69
2022/11/07 07:40:26;;;;;;;12.70;4.17;;;-12.60;99.90;;;;;;5097355;28;20266;-68
2022/11/07 07:42:52;;;;;;;17.30;5.20;;;-12.90;99.90;;;;;;5097483;28;20184;-69
2022/11/07 07:45:17;;;;;;;14.53;3.63;;;-13.70;99.90;;;;;;5096186;28;20183;-68
2022/11/07 07:47:44;;;;;;;16.33;5.53;;;-10.30;99.90;;;;;;5097259;28;20175;-70
2022/11/07 07:50:11;;;;;;;24.67;5.70;;;-11.30;99.90;;;;;;5097366;28;20223;-69
2022/11/07 07:52:36;;;;;;;16.93;4.57;;;-13.40;99.90;;;;;;5096747;28;20171;-70
2022/11/07 07:55:03;;;;;;;12.00;5.47;;;-13.00;99.90;;;;;;5084889;28;20186;-68
2022/11/07 07:57:29;;;;;;;9.67;2.97;;;-13.80;99.90;;;;;;5082889;28;20183;-70
2022/11/07 07:59:54;;;;;;;16.10;4.10;;;-11.60;99.90;;;;;;5104551;27;20653;-68
2022/11/07 08:02:20;;;;;;;16.97;4.13;;;-15.50;99.90;;;;;;5086826;28;20190;-69
2022/11/07 08:04:46;;;;;;;15.67;4.27;;;-12.60;99.90;;;;;;5092464;28;20281;-68
2022/11/07 08:07:11;;;;;;;15.87;4.90;;;-13.00;99.90;;;;;;5096766;28;20171;-70
2022/11/07 08:09:37;;;;;;;20.77;5.33;;;-12.40;99.90;;;;;;5084564;28;20234;-70
2022/11/07 08:12:04;;;;;;;17.87;4.27;;;-11.40;99.90;;;;;;5087579;28;20187;-70
2022/11/07 08:14:30;;;;;;;12.37;4.03;;;-14.40;99.90;;;;;;5091767;28;20183;-70
2022/11/07 08:16:56;;;;;;;20.10;5.47;;;-11.80;99.90;;;;;;5086845;28;20201;-70
2022/11/07 08:19:22;;;;;;;19.70;4.20;;;-12.50;99.90;;;;;;5087078;28;20655;-69
2022/11/07 08:21:48;;;;;;;16.87;3.83;;;-12.80;99.90;;;;;;5095267;28;20183;-68
2022/11/07 08:24:14;;;;;;;10.90;4.00;;;-13.10;99.90;;;;;;5091800;28;20192;-69
2022/11/07 08:26:39;;;;;;;16.80;4.30;;;-13.30;99.90;;;;;;5095293;28;20182;-69
2022/11/07 08:29:05;;;;;;;20.67;5.47;;;-14.50;99.90;;;;;;5078869;28;20222;-69
2022/11/07 08:31:31;;;;;;;18.43;4.90;;;-12.30;99.90;;;;;;5090557;28;20178;-71
2022/11/07 08:33:58;;;;;;;15.63;4.33;;;-12.40;99.90;;;;;;5091942;28;20190;-69
2022/11/07 08:36:24;;;;;;;6.70;2.73;;;-12.60;99.90;;;;;;5096321;28;20232;-70
2022/11/07 08:38:50;;;;;;;18.40;4.63;;;-12.80;99.90;;;;;;5095950;28;20178;-68
2022/11/07 08:41:16;;;;;;;14.97;4.57;;;-10.40;99.90;;;;;;5094802;28;20240;-70
2022/11/07 08:43:41;;;;;;;12.13;3.27;;;-8.70;99.90;;;;;;5096508;28;20182;-68
2022/11/07 08:46:07;;;;;;;18.07;4.70;;;-8.50;99.90;;;;;;5084713;28;20185;-69
2022/11/07 08:48:33;;;;;;;12.10;3.87;;;-11.70;99.90;;;;;;5092218;28;20205;-69
2022/11/07 08:51:01;;;;;;;16.57;3.90;;;-13.30;99.90;;;;;;5095037;28;20278;-68
2022/11/07 08:53:28;;;;;;;10.60;3.00;;;-14.10;99.90;;;;;;5095881;28;20185;-69
2022/11/07 08:56:05;;;;;;;14.57;3.80;;;-11.70;99.90;;;;;;5089514;28;20257;-68
2022/11/07 08:58:31;;;;;;;10.07;2.80;;;-11.20;99.90;;;;;;5083634;28;20182;-69
2022/11/07 09:00:57;;;;;;;14.33;3.83;;;-11.50;99.90;;;;;;5095638;28;20197;-69
2022/11/07 09:03:23;;;;;;;14.40;3.43;;;-12.10;99.90;;;;;;5084100;28;20222;-69
2022/11/07 09:05:49;;;;;;;11.10;4.13;;;-12.90;99.90;;;;;;5082944;28;20179;-71
2022/11/07 09:08:15;;;;;;;16.83;4.60;;;-12.80;99.90;;;;;;5086121;28;20598;-68
2022/11/07 09:10:40;;;;;;;10.77;3.13;;;-14.70;99.90;;;;;;5088571;28;20461;-69
2022/11/07 09:13:06;;;;;;;21.10;4.67;;;-16.30;99.90;;;;;;5096130;28;20202;-72
2022/11/07 09:15:32;;;;;;;16.13;3.67;;;-14.30;99.90;;;;;;5088405;28;20222;-69
2022/11/07 09:18:05;;;;;;;11.47;4.07;;;-15.10;99.90;;;;;;5095566;28;20435;-67
2022/11/07 09:20:32;;;;;;;11.40;3.27;;;-13.60;99.90;;;;;;5086495;28;20179;-68
2022/11/07 09:22:59;;;;;;;15.27;3.90;;;-13.70;99.90;;;;;;5091417;28;20202;-69
2022/11/07 09:25:25;;;;;;;15.97;3.37;;;-14.10;99.90;;;;;;5091221;28;20221;-71
2022/11/07 09:27:51;;;;;;;8.10;3.97;;;-17.50;99.90;;;;;;5089313;28;20257;-70
2022/11/07 09:30:20;;;;;;;12.33;3.07;;;-20.80;99.90;;;;;;5091866;28;20194;-69
2022/11/07 09:32:47;;;;;;;19.40;4.83;;;-15.80;99.90;;;;;;5095862;28;20181;-70
2022/11/07 09:35:13;;;;;;;16.00;4.30;;;-14.50;99.90;;;;;;5095793;28;20191;-69
2022/11/07 09:37:40;;;;;;;11.87;3.07;;;-14.90;99.90;;;;;;5094238;28;20190;-72
2022/11/07 09:40:22;;;;;;;14.37;4.90;;;-17.30;99.90;;;;;;5095682;28;20184;-69
2022/11/07 09:43:17;;;;;;;18.57;5.00;;;-19.50;99.90;;;;;;5095548;28;20208;-70
2022/11/07 09:45:56;;;;;;;8.57;3.03;;;-19.00;99.90;;;;;;5067222;28;20194;-71
2022/11/07 09:48:30;;;;;;;10.40;2.30;;;-16.80;99.90;;;;;;5080488;28;20249;-68
2022/11/07 09:50:57;;;;;;;12.07;5.20;;;-13.00;99.90;;;;;;5084201;28;20226;-69
2022/11/07 09:53:33;;;;;;;12.53;4.23;;;-13.20;99.90;;;;;;5088893;28;20253;-69
2022/11/07 09:56:03;;;;;;;5.77;2.87;;;-17.40;99.90;;;;;;5095289;28;20187;-69
2022/11/07 09:58:46;;;;;;;12.00;3.30;;;-17.50;99.90;;;;;;5094614;28;20240;-71
2022/11/07 10:01:15;;;;;;;13.93;3.53;;;-16.90;99.90;;;;;;5088424;28;21022;-69
2022/11/07 10:03:42;;;;;;;16.97;4.47;;;-13.40;99.90;;;;;;5085605;28;20223;-69
2022/11/07 10:06:08;;;;;;;17.40;4.33;;;-16.20;99.90;;;;;;5087728;28;20186;-69
2022/11/07 10:08:44;;;;;;;18.03;4.83;;;-14.50;99.90;;;;;;5089627;28;20491;-68
2022/11/07 10:11:27;;;;;;;13.13;3.47;;;-14.80;99.90;;;;;;5094875;28;20171;-72
2022/11/07 10:14:03;;;;;;;11.40;3.20;;;-14.00;99.90;;;;;;5088158;28;20194;-68
2022/11/07 10:16:37;;;;;;;11.17;2.87;;;-10.70;99.90;;;;;;5093637;28;20607;-70
2022/11/07 10:19:03;;;;;;;12.33;2.77;;;-16.30;99.90;;;;;;5080429;28;20187;-70
2022/11/07 10:21:44;;;;;;;8.47;2.90;;;-16.80;99.90;;;;;;5087115;28;20539;-69
2022/11/07 10:24:38;;;;;;;10.77;3.27;;;-21.20;99.90;;;;;;5094836;28;20186;-71
2022/11/07 10:27:11;;;;;;;8.50;2.83;;;-19.60;99.90;;;;;;5088823;28;20182;-74
2022/11/07 10:29:52;;;;;;;5.60;2.53;;;-24.70;99.90;;;;;;5104969;28;20210;-72
2022/11/07 10:32:38;;;;;;;13.03;3.50;;;-23.00;99.90;;;;;;5093042;28;20173;-71
2022/11/07 10:35:29;;;;;;;12.00;2.23;;;-19.10;99.90;;;;;;5083697;28;20177;-72
2022/11/07 10:37:57;;;;;;;10.40;3.10;;;-18.60;99.90;;;;;;5098705;28;20206;-69
2022/11/07 10:40:44;;;;;;;12.70;3.57;;;-17.90;99.90;;;;;;5098669;28;20578;-72
2022/11/07 10:43:33;;;;;;;8.30;2.93;;;-21.10;99.90;;;;;;5086890;28;20274;-72
2022/11/07 10:46:30;;;;;;;10.40;3.03;;;-26.00;99.90;;;;;;5085192;28;20283;-75
2022/11/07 10:48:58;;;;;;;7.83;2.23;;;-40.00;99.90;;;;;;5074975;28;20219;-73
2022/11/07 10:51:38;;;;;;;11.23;3.00;;;-40.00;99.90;;;;;;5087362;28;20220;-73
2022/11/07 10:54:06;;;;;;;13.67;3.90;;;-40.00;99.90;;;;;;5079291;28;20594;-71
2022/11/07 10:56:47;;;;;;;4.37;2.30;;;-40.00;99.90;;;;;;5090362;28;20254;-73
2022/11/07 10:59:25;;;;;;;11.43;2.73;;;-40.00;99.90;;;;;;5085985;28;20192;-73
2022/11/07 11:01:56;;;;;;;15.47;2.93;;;-40.00;99.90;;;;;;5093259;28;20194;-73
2022/11/07 11:04:28;;;;;;;12.10;3.30;;;-40.00;99.90;;;;;;5089642;28;20515;-73
2022/11/07 11:07:09;;;;;;;7.83;2.50;;;-38.30;99.90;;;;;;5089123;28;20603;-70
2022/11/07 11:09:35;;;;;;;8.60;3.60;;;-33.90;99.90;;;;;;5093349;28;20199;-72
2022/11/07 11:12:12;;;;;;;14.60;3.60;;;-38.80;99.90;;;;;;5093961;28;20590;-74
2022/11/07 11:14:38;;;;;;;7.63;3.17;;;-37.60;99.90;;;;;;5090988;28;20182;-72
2022/11/07 11:17:04;;;;;;;12.70;4.73;;;-35.50;99.90;;;;;;5093364;28;20241;-73
2022/11/07 11:19:39;;;;;;;11.60;3.30;;;-27.00;99.90;;;;;;5097489;28;20281;-71
2022/11/07 11:22:15;;;;;;;8.33;2.63;;;-23.60;99.90;;;;;;5098008;28;20182;-70
2022/11/07 11:24:40;;;;;;;6.73;3.10;;;-25.30;99.90;;;;;;5096745;28;20178;-69
2022/11/07 11:27:16;;;;;;;7.30;2.27;;;-28.50;99.90;;;;;;5097739;28;20193;-73
2022/11/07 11:29:57;;;;;;;6.53;2.83;;;-31.00;99.90;;;;;;5097587;28;20624;-71
2022/11/07 11:32:47;;;;;;;16.87;4.50;;;-26.10;99.90;;;;;;5091971;28;20257;-70
2022/11/07 11:35:34;;;;;;;13.20;2.97;;;-25.70;99.90;;;;;;5085164;28;20180;-71
2022/11/07 11:38:10;;;;;;;10.50;3.03;;;-21.50;99.90;;;;;;5084710;28;20203;-70
2022/11/07 11:40:39;;;;;;;11.23;4.00;;;-25.60;99.90;;;;;;5090920;28;20221;-69
2022/11/07 11:43:17;;;;;;;6.67;3.17;;;-24.30;99.90;;;;;;5092278;28;20217;-68
2022/11/07 11:46:01;;;;;;;15.73;3.23;;;-19.60;99.90;;;;;;5097016;28;20600;-68
2022/11/07 11:48:40;;;;;;;8.50;2.70;;;-25.30;99.90;;;;;;5088184;28;20202;-70
2022/11/07 11:51:20;;;;;;;8.77;2.83;;;-19.20;99.90;;;;;;5085100;28;20628;-72
2022/11/07 11:53:45;;;;;;;12.77;2.57;;;-27.20;99.90;;;;;;5087796;28;20175;-71
2022/11/07 11:56:36;;;;;;;5.27;2.53;;;-28.80;99.90;;;;;;5089960;28;20570;-72
2022/11/07 11:59:36;;;;;;;8.87;3.33;;;-31.90;99.90;;;;;;5094859;28;20178;-71
2022/11/07 12:02:16;;;;;;;5.03;1.40;;;-29.70;99.90;;;;;;5089951;28;20589;-71
2022/11/07 12:05:13;;;;;;;11.87;4.10;;;-27.80;99.90;;;;;;5083578;28;20498;-71
2022/11/07 12:08:18;;;;;;;11.03;3.00;;;-24.40;99.90;;;;;;5104923;27;20191;-69
2022/11/07 12:11:14;;;;;;;8.20;2.37;;;-24.30;99.90;;;;;;5082795;28;20637;-70
2022/11/07 12:13:58;;;;;;;8.73;2.70;;;-31.00;99.90;;;;;;5090981;28;20186;-70
2022/11/07 12:16:58;;;;;;;5.63;2.77;;;-24.20;99.90;;;;;;5096583;28;20465;-72
2022/11/07 12:19:30;;;;;;;5.97;2.67;;;-20.80;99.90;;;;;;5091260;28;20179;-72
2022/11/07 12:22:13;;;;;;;7.90;2.90;;;-14.50;99.90;;;;;;5096294;28;20593;-71
2022/11/07 12:24:49;;;;;;;9.37;2.43;;;-15.30;99.90;;;;;;5089771;28;20202;-71
2022/11/07 12:27:18;;;;;;;8.03;2.47;;;-17.00;99.90;;;;;;5089369;28;20673;-72
2022/11/07 12:29:55;;;;;;;8.53;2.17;;;-18.60;99.90;;;;;;5096470;28;20282;-71
2022/11/07 12:32:26;;;;;;;6.70;2.20;;;-16.20;99.90;;;;;;5096284;28;20631;-69
2022/11/07 12:34:59;;;;;;;6.43;2.57;;;-20.80;99.90;;;;;;5093771;28;20585;-70
2022/11/07 12:37:32;;;;;;;9.27;3.67;;;-19.20;99.90;;;;;;5086631;28;20247;-71
2022/11/07 12:40:01;;;;;;;9.67;2.97;;;-15.90;99.90;;;;;;5093239;28;20190;-71
2022/11/07 12:42:47;;;;;;;9.20;2.17;;;-17.60;99.90;;;;;;5084530;28;20170;-69
2022/11/07 12:45:18;;;;;;;8.40;2.70;;;-17.30;99.90;;;;;;5084341;28;20228;-71
2022/11/07 12:47:53;;;;;;;12.00;2.43;;;-18.70;99.90;;;;;;5095987;28;20189;-70
2022/11/07 12:50:50;;;;;;;10.63;3.30;;;-20.20;99.90;;;;;;5090640;28;20206;-70
2022/11/07 12:53:31;;;;;;;10.00;2.93;;;-13.30;99.90;;;;;;5096089;28;20661;-70
2022/11/07 12:56:09;;;;;;;9.73;3.23;;;-22.50;99.90;;;;;;5090004;28;20201;-71
2022/11/07 12:58:37;;;;;;;18.83;3.63;;;-16.40;99.90;;;;;;5090454;28;20235;-71
2022/11/07 13:01:03;;;;;;;10.60;3.33;;;-18.60;99.90;;;;;;5088007;28;20218;-71
2022/11/07 13:03:52;;;;;;;7.23;2.60;;;-24.90;99.90;;;;;;5092341;28;20348;-70